sensor_id;sensor_type;location;lat;lon;timestamp;P1;durP1;ratioP1;P2;durP2;ratioP2
11616;SDS011;5864;52.998;9.068;2023-07-30T00:01:11;3.63;;;3.30;;
11616;SDS011;5864;52.998;9.068;2023-07-30T00:03:56;3.50;;;3.20;;
11616;SDS011;5864;52.998;9.068;2023-07-30T00:06:41;3.40;;;3.10;;
11616;SDS011;5864;52.998;9.068;2023-07-30T00:09:29;3.57;;;3.10;;
11616;SDS011;5864;52.998;9.068;2023-07-30T00:12:14;3.20;;;2.90;;
11616;SDS011;5864;52.998;9.068;2023-07-30T00:15:01;3.53;;;3.23;;
11616;SDS011;5864;52.998;9.068;2023-07-30T00:17:46;3.63;;;3.20;;
11616;SDS011;5864;52.998;9.068;2023-07-30T00:20:33;4.30;;;3.30;;
11616;SDS011;5864;52.998;9.068;2023-07-30T00:23:19;4.57;;;2.93;;
11616;SDS011;5864;52.998;9.068;2023-07-30T00:26:06;3.87;;;3.17;;
11616;SDS011;5864;52.998;9.068;2023-07-30T00:28:51;4.33;;;3.03;;
11616;SDS011;5864;52.998;9.068;2023-07-30T00:31:38;3.87;;;3.40;;
11616;SDS011;5864;52.998;9.068;2023-07-30T00:34:23;3.83;;;3.03;;
11616;SDS011;5864;52.998;9.068;2023-07-30T00:37:08;3.33;;;3.03;;
11616;SDS011;5864;52.998;9.068;2023-07-30T00:39:54;3.07;;;2.87;;
11616;SDS011;5864;52.998;9.068;2023-07-30T00:42:41;5.83;;;4.00;;
11616;SDS011;5864;52.998;9.068;2023-07-30T00:45:27;3.50;;;3.20;;
11616;SDS011;5864;52.998;9.068;2023-07-30T00:48:13;4.50;;;3.23;;
11616;SDS011;5864;52.998;9.068;2023-07-30T00:50:59;4.47;;;3.20;;
11616;SDS011;5864;52.998;9.068;2023-07-30T00:53:45;4.47;;;3.50;;
11616;SDS011;5864;52.998;9.068;2023-07-30T00:56:30;3.87;;;3.40;;
11616;SDS011;5864;52.998;9.068;2023-07-30T00:59:17;4.83;;;3.40;;
11616;SDS011;5864;52.998;9.068;2023-07-30T01:02:03;4.10;;;3.30;;
11616;SDS011;5864;52.998;9.068;2023-07-30T01:04:49;3.93;;;3.10;;
11616;SDS011;5864;52.998;9.068;2023-07-30T01:07:35;4.70;;;3.33;;
11616;SDS011;5864;52.998;9.068;2023-07-30T01:10:21;6.20;;;3.20;;
11616;SDS011;5864;52.998;9.068;2023-07-30T01:13:08;4.30;;;2.87;;
11616;SDS011;5864;52.998;9.068;2023-07-30T01:15:56;3.60;;;2.87;;
11616;SDS011;5864;52.998;9.068;2023-07-30T01:18:42;3.63;;;2.93;;
11616;SDS011;5864;52.998;9.068;2023-07-30T01:21:29;4.47;;;2.70;;
11616;SDS011;5864;52.998;9.068;2023-07-30T01:24:15;4.50;;;2.90;;
11616;SDS011;5864;52.998;9.068;2023-07-30T01:27:01;4.33;;;2.70;;
11616;SDS011;5864;52.998;9.068;2023-07-30T01:29:51;3.10;;;2.80;;
11616;SDS011;5864;52.998;9.068;2023-07-30T01:32:39;5.27;;;2.70;;
11616;SDS011;5864;52.998;9.068;2023-07-30T01:35:26;6.23;;;3.03;;
11616;SDS011;5864;52.998;9.068;2023-07-30T01:38:14;6.37;;;2.80;;
11616;SDS011;5864;52.998;9.068;2023-07-30T01:41:00;3.73;;;2.97;;
11616;SDS011;5864;52.998;9.068;2023-07-30T01:43:46;3.63;;;2.53;;
11616;SDS011;5864;52.998;9.068;2023-07-30T01:46:31;3.87;;;2.70;;
11616;SDS011;5864;52.998;9.068;2023-07-30T01:49:17;3.87;;;2.93;;
11616;SDS011;5864;52.998;9.068;2023-07-30T01:52:02;3.70;;;2.90;;
11616;SDS011;5864;52.998;9.068;2023-07-30T01:54:49;4.47;;;2.90;;
11616;SDS011;5864;52.998;9.068;2023-07-30T01:57:35;5.00;;;2.80;;
11616;SDS011;5864;52.998;9.068;2023-07-30T02:00:21;5.63;;;2.97;;
11616;SDS011;5864;52.998;9.068;2023-07-30T02:03:06;3.63;;;2.70;;
11616;SDS011;5864;52.998;9.068;2023-07-30T02:05:53;4.27;;;2.60;;
11616;SDS011;5864;52.998;9.068;2023-07-30T02:08:38;4.13;;;3.00;;
11616;SDS011;5864;52.998;9.068;2023-07-30T02:11:26;2.90;;;2.57;;
11616;SDS011;5864;52.998;9.068;2023-07-30T02:14:12;4.47;;;2.77;;
11616;SDS011;5864;52.998;9.068;2023-07-30T02:16:58;6.07;;;2.83;;
11616;SDS011;5864;52.998;9.068;2023-07-30T02:19:43;3.97;;;2.77;;
11616;SDS011;5864;52.998;9.068;2023-07-30T02:22:30;4.77;;;2.90;;
11616;SDS011;5864;52.998;9.068;2023-07-30T02:25:15;3.10;;;2.60;;
11616;SDS011;5864;52.998;9.068;2023-07-30T02:28:03;4.73;;;3.17;;
11616;SDS011;5864;52.998;9.068;2023-07-30T02:30:49;3.20;;;2.90;;
11616;SDS011;5864;52.998;9.068;2023-07-30T02:33:34;6.47;;;3.47;;
11616;SDS011;5864;52.998;9.068;2023-07-30T02:36:21;3.77;;;3.27;;
11616;SDS011;5864;52.998;9.068;2023-07-30T02:39:06;4.77;;;3.10;;
11616;SDS011;5864;52.998;9.068;2023-07-30T02:41:52;5.73;;;3.23;;
11616;SDS011;5864;52.998;9.068;2023-07-30T02:44:39;3.90;;;3.03;;
11616;SDS011;5864;52.998;9.068;2023-07-30T02:47:25;2.93;;;2.73;;
11616;SDS011;5864;52.998;9.068;2023-07-30T02:50:11;5.10;;;3.50;;
11616;SDS011;5864;52.998;9.068;2023-07-30T02:52:56;3.63;;;2.80;;
11616;SDS011;5864;52.998;9.068;2023-07-30T02:55:42;4.37;;;3.30;;
11616;SDS011;5864;52.998;9.068;2023-07-30T02:58:27;4.53;;;3.20;;
11616;SDS011;5864;52.998;9.068;2023-07-30T03:01:14;4.50;;;3.03;;
11616;SDS011;5864;52.998;9.068;2023-07-30T03:04:01;4.00;;;3.53;;
11616;SDS011;5864;52.998;9.068;2023-07-30T03:06:46;5.37;;;3.90;;
11616;SDS011;5864;52.998;9.068;2023-07-30T03:09:32;5.73;;;3.80;;
11616;SDS011;5864;52.998;9.068;2023-07-30T03:12:17;4.93;;;3.70;;
11616;SDS011;5864;52.998;9.068;2023-07-30T03:15:03;4.23;;;3.60;;
11616;SDS011;5864;52.998;9.068;2023-07-30T03:17:51;3.97;;;3.30;;
11616;SDS011;5864;52.998;9.068;2023-07-30T03:20:36;3.90;;;3.43;;
11616;SDS011;5864;52.998;9.068;2023-07-30T03:23:22;6.60;;;3.90;;
11616;SDS011;5864;52.998;9.068;2023-07-30T03:26:07;6.83;;;3.83;;
11616;SDS011;5864;52.998;9.068;2023-07-30T03:28:53;5.73;;;3.70;;
11616;SDS011;5864;52.998;9.068;2023-07-30T03:31:39;6.47;;;4.03;;
11616;SDS011;5864;52.998;9.068;2023-07-30T03:34:26;4.90;;;3.43;;
11616;SDS011;5864;52.998;9.068;2023-07-30T03:37:11;5.83;;;4.10;;
11616;SDS011;5864;52.998;9.068;2023-07-30T03:39:58;8.33;;;4.37;;
11616;SDS011;5864;52.998;9.068;2023-07-30T03:42:43;7.87;;;4.10;;
11616;SDS011;5864;52.998;9.068;2023-07-30T03:45:29;3.73;;;3.27;;
11616;SDS011;5864;52.998;9.068;2023-07-30T03:48:14;5.30;;;3.50;;
11616;SDS011;5864;52.998;9.068;2023-07-30T03:51:01;5.47;;;3.70;;
11616;SDS011;5864;52.998;9.068;2023-07-30T03:53:48;5.33;;;3.90;;
11616;SDS011;5864;52.998;9.068;2023-07-30T03:56:33;5.33;;;3.83;;
11616;SDS011;5864;52.998;9.068;2023-07-30T03:59:20;9.07;;;3.83;;
11616;SDS011;5864;52.998;9.068;2023-07-30T04:02:05;7.53;;;4.07;;
11616;SDS011;5864;52.998;9.068;2023-07-30T04:04:51;7.87;;;4.03;;
11616;SDS011;5864;52.998;9.068;2023-07-30T04:07:38;6.10;;;3.80;;
11616;SDS011;5864;52.998;9.068;2023-07-30T04:10:24;6.47;;;3.73;;
11616;SDS011;5864;52.998;9.068;2023-07-30T04:13:09;6.13;;;4.00;;
11616;SDS011;5864;52.998;9.068;2023-07-30T04:15:55;7.40;;;3.87;;
11616;SDS011;5864;52.998;9.068;2023-07-30T04:18:41;5.43;;;3.77;;
11616;SDS011;5864;52.998;9.068;2023-07-30T04:21:26;6.03;;;3.30;;
11616;SDS011;5864;52.998;9.068;2023-07-30T04:24:14;6.90;;;3.93;;
11616;SDS011;5864;52.998;9.068;2023-07-30T04:27:00;7.50;;;3.40;;
11616;SDS011;5864;52.998;9.068;2023-07-30T04:29:46;7.23;;;3.30;;
11616;SDS011;5864;52.998;9.068;2023-07-30T04:32:31;5.97;;;3.20;;
11616;SDS011;5864;52.998;9.068;2023-07-30T04:35:17;8.40;;;3.23;;
11616;SDS011;5864;52.998;9.068;2023-07-30T04:38:02;4.90;;;3.30;;
11616;SDS011;5864;52.998;9.068;2023-07-30T04:40:49;5.07;;;2.90;;
11616;SDS011;5864;52.998;9.068;2023-07-30T04:43:36;6.20;;;3.10;;
11616;SDS011;5864;52.998;9.068;2023-07-30T04:46:21;6.30;;;3.33;;
11616;SDS011;5864;52.998;9.068;2023-07-30T04:49:07;9.10;;;2.93;;
11616;SDS011;5864;52.998;9.068;2023-07-30T04:51:52;5.83;;;3.00;;
11616;SDS011;5864;52.998;9.068;2023-07-30T04:54:38;7.20;;;2.80;;
11616;SDS011;5864;52.998;9.068;2023-07-30T04:57:24;8.13;;;2.90;;
11616;SDS011;5864;52.998;9.068;2023-07-30T05:00:11;5.30;;;3.10;;
11616;SDS011;5864;52.998;9.068;2023-07-30T05:02:57;5.40;;;2.70;;
11616;SDS011;5864;52.998;9.068;2023-07-30T05:05:42;6.60;;;2.70;;
11616;SDS011;5864;52.998;9.068;2023-07-30T05:08:29;6.23;;;2.73;;
11616;SDS011;5864;52.998;9.068;2023-07-30T05:11:14;5.87;;;3.23;;
11616;SDS011;5864;52.998;9.068;2023-07-30T05:14:02;13.73;;;3.37;;
11616;SDS011;5864;52.998;9.068;2023-07-30T05:16:47;9.57;;;3.40;;
11616;SDS011;5864;52.998;9.068;2023-07-30T05:19:33;7.50;;;3.00;;
11616;SDS011;5864;52.998;9.068;2023-07-30T05:22:18;6.30;;;3.00;;
11616;SDS011;5864;52.998;9.068;2023-07-30T05:25:04;5.73;;;2.87;;
11616;SDS011;5864;52.998;9.068;2023-07-30T05:27:51;7.93;;;2.90;;
11616;SDS011;5864;52.998;9.068;2023-07-30T05:30:37;12.80;;;3.67;;
11616;SDS011;5864;52.998;9.068;2023-07-30T05:33:24;6.87;;;2.87;;
11616;SDS011;5864;52.998;9.068;2023-07-30T05:36:09;7.07;;;2.73;;
11616;SDS011;5864;52.998;9.068;2023-07-30T05:38:55;8.90;;;3.23;;
11616;SDS011;5864;52.998;9.068;2023-07-30T05:41:41;7.13;;;3.33;;
11616;SDS011;5864;52.998;9.068;2023-07-30T05:44:26;9.83;;;3.33;;
11616;SDS011;5864;52.998;9.068;2023-07-30T05:47:13;7.47;;;3.30;;
11616;SDS011;5864;52.998;9.068;2023-07-30T05:49:58;6.83;;;3.23;;
11616;SDS011;5864;52.998;9.068;2023-07-30T05:52:45;6.10;;;3.20;;
11616;SDS011;5864;52.998;9.068;2023-07-30T05:55:30;8.00;;;3.47;;
11616;SDS011;5864;52.998;9.068;2023-07-30T05:58:16;7.37;;;3.47;;
11616;SDS011;5864;52.998;9.068;2023-07-30T06:01:01;5.63;;;3.20;;
11616;SDS011;5864;52.998;9.068;2023-07-30T06:03:48;10.03;;;3.47;;
11616;SDS011;5864;52.998;9.068;2023-07-30T06:06:34;12.20;;;3.67;;
11616;SDS011;5864;52.998;9.068;2023-07-30T06:09:19;8.47;;;3.33;;
11616;SDS011;5864;52.998;9.068;2023-07-30T06:12:05;7.77;;;3.37;;
11616;SDS011;5864;52.998;9.068;2023-07-30T06:14:51;6.57;;;3.00;;
11616;SDS011;5864;52.998;9.068;2023-07-30T06:17:37;7.70;;;3.43;;
11616;SDS011;5864;52.998;9.068;2023-07-30T06:20:24;8.07;;;3.50;;
11616;SDS011;5864;52.998;9.068;2023-07-30T06:23:09;4.77;;;2.60;;
11616;SDS011;5864;52.998;9.068;2023-07-30T06:25:55;8.70;;;3.40;;
11616;SDS011;5864;52.998;9.068;2023-07-30T06:28:41;8.83;;;3.47;;
11616;SDS011;5864;52.998;9.068;2023-07-30T06:31:26;11.77;;;3.60;;
11616;SDS011;5864;52.998;9.068;2023-07-30T06:34:12;9.03;;;2.90;;
11616;SDS011;5864;52.998;9.068;2023-07-30T06:37:00;11.97;;;3.40;;
11616;SDS011;5864;52.998;9.068;2023-07-30T06:39:46;8.27;;;3.23;;
11616;SDS011;5864;52.998;9.068;2023-07-30T06:42:32;7.83;;;3.20;;
11616;SDS011;5864;52.998;9.068;2023-07-30T06:45:17;9.67;;;3.50;;
11616;SDS011;5864;52.998;9.068;2023-07-30T06:48:04;10.27;;;3.50;;
11616;SDS011;5864;52.998;9.068;2023-07-30T06:50:50;11.57;;;3.37;;
11616;SDS011;5864;52.998;9.068;2023-07-30T06:53:36;11.80;;;4.17;;
11616;SDS011;5864;52.998;9.068;2023-07-30T06:56:22;7.53;;;3.60;;
11616;SDS011;5864;52.998;9.068;2023-07-30T06:59:07;10.47;;;3.70;;
11616;SDS011;5864;52.998;9.068;2023-07-30T07:01:53;7.47;;;3.33;;
11616;SDS011;5864;52.998;9.068;2023-07-30T07:04:38;8.03;;;3.23;;
11616;SDS011;5864;52.998;9.068;2023-07-30T07:07:24;9.20;;;3.03;;
11616;SDS011;5864;52.998;9.068;2023-07-30T07:10:11;8.43;;;3.50;;
11616;SDS011;5864;52.998;9.068;2023-07-30T07:12:57;9.30;;;3.60;;
11616;SDS011;5864;52.998;9.068;2023-07-30T07:15:42;10.60;;;3.43;;
11616;SDS011;5864;52.998;9.068;2023-07-30T07:18:29;7.70;;;3.20;;
11616;SDS011;5864;52.998;9.068;2023-07-30T07:21:14;9.83;;;3.60;;
11616;SDS011;5864;52.998;9.068;2023-07-30T07:24:00;6.57;;;3.17;;
11616;SDS011;5864;52.998;9.068;2023-07-30T07:26:47;9.23;;;3.33;;
11616;SDS011;5864;52.998;9.068;2023-07-30T07:29:32;14.07;;;4.17;;
11616;SDS011;5864;52.998;9.068;2023-07-30T07:32:18;12.63;;;4.27;;
11616;SDS011;5864;52.998;9.068;2023-07-30T07:35:04;9.37;;;3.83;;
11616;SDS011;5864;52.998;9.068;2023-07-30T07:37:50;15.27;;;4.20;;
11616;SDS011;5864;52.998;9.068;2023-07-30T07:40:36;12.77;;;3.90;;
11616;SDS011;5864;52.998;9.068;2023-07-30T07:43:25;12.10;;;4.47;;
11616;SDS011;5864;52.998;9.068;2023-07-30T07:46:11;8.30;;;3.57;;
11616;SDS011;5864;52.998;9.068;2023-07-30T07:48:57;10.97;;;3.83;;
11616;SDS011;5864;52.998;9.068;2023-07-30T07:51:43;9.57;;;4.13;;
11616;SDS011;5864;52.998;9.068;2023-07-30T07:54:28;12.10;;;4.63;;
11616;SDS011;5864;52.998;9.068;2023-07-30T07:57:14;12.70;;;3.73;;
11616;SDS011;5864;52.998;9.068;2023-07-30T08:00:01;9.03;;;3.67;;
11616;SDS011;5864;52.998;9.068;2023-07-30T08:02:49;8.90;;;3.33;;
11616;SDS011;5864;52.998;9.068;2023-07-30T08:05:34;8.17;;;3.53;;
11616;SDS011;5864;52.998;9.068;2023-07-30T08:08:20;10.10;;;3.00;;
11616;SDS011;5864;52.998;9.068;2023-07-30T08:11:06;7.17;;;3.20;;
11616;SDS011;5864;52.998;9.068;2023-07-30T08:13:52;11.43;;;3.80;;
11616;SDS011;5864;52.998;9.068;2023-07-30T08:16:38;9.93;;;3.50;;
11616;SDS011;5864;52.998;9.068;2023-07-30T08:19:24;9.13;;;3.27;;
11616;SDS011;5864;52.998;9.068;2023-07-30T08:22:10;6.07;;;3.17;;
11616;SDS011;5864;52.998;9.068;2023-07-30T08:24:55;9.63;;;3.60;;
11616;SDS011;5864;52.998;9.068;2023-07-30T08:27:41;9.57;;;3.57;;
11616;SDS011;5864;52.998;9.068;2023-07-30T08:30:26;10.33;;;3.17;;
11616;SDS011;5864;52.998;9.068;2023-07-30T08:33:13;9.33;;;3.20;;
11616;SDS011;5864;52.998;9.068;2023-07-30T08:35:59;8.37;;;3.00;;
11616;SDS011;5864;52.998;9.068;2023-07-30T08:38:45;10.53;;;3.30;;
11616;SDS011;5864;52.998;9.068;2023-07-30T08:41:30;8.57;;;3.10;;
11616;SDS011;5864;52.998;9.068;2023-07-30T08:44:16;7.83;;;3.33;;
11616;SDS011;5864;52.998;9.068;2023-07-30T08:47:02;7.77;;;3.20;;
11616;SDS011;5864;52.998;9.068;2023-07-30T08:49:49;6.93;;;2.77;;
11616;SDS011;5864;52.998;9.068;2023-07-30T08:52:35;8.43;;;3.30;;
11616;SDS011;5864;52.998;9.068;2023-07-30T08:55:21;8.73;;;3.07;;
11616;SDS011;5864;52.998;9.068;2023-07-30T08:58:07;9.17;;;3.03;;
11616;SDS011;5864;52.998;9.068;2023-07-30T09:00:55;8.77;;;2.90;;
11616;SDS011;5864;52.998;9.068;2023-07-30T09:03:42;6.23;;;3.03;;
11616;SDS011;5864;52.998;9.068;2023-07-30T09:06:28;8.20;;;2.60;;
11616;SDS011;5864;52.998;9.068;2023-07-30T09:09:14;7.03;;;3.07;;
11616;SDS011;5864;52.998;9.068;2023-07-30T09:12:00;7.17;;;2.77;;
11616;SDS011;5864;52.998;9.068;2023-07-30T09:14:46;9.50;;;3.27;;
11616;SDS011;5864;52.998;9.068;2023-07-30T09:17:35;7.87;;;3.17;;
11616;SDS011;5864;52.998;9.068;2023-07-30T09:20:21;6.97;;;3.00;;
11616;SDS011;5864;52.998;9.068;2023-07-30T09:23:08;7.57;;;3.03;;
11616;SDS011;5864;52.998;9.068;2023-07-30T09:25:56;7.60;;;3.30;;
11616;SDS011;5864;52.998;9.068;2023-07-30T09:28:43;7.87;;;3.03;;
11616;SDS011;5864;52.998;9.068;2023-07-30T09:31:29;6.70;;;2.90;;
11616;SDS011;5864;52.998;9.068;2023-07-30T09:34:15;7.57;;;2.90;;
11616;SDS011;5864;52.998;9.068;2023-07-30T09:37:01;8.90;;;3.50;;
11616;SDS011;5864;52.998;9.068;2023-07-30T09:39:49;7.83;;;3.10;;
11616;SDS011;5864;52.998;9.068;2023-07-30T09:42:35;11.43;;;3.50;;
11616;SDS011;5864;52.998;9.068;2023-07-30T09:45:24;8.03;;;3.40;;
11616;SDS011;5864;52.998;9.068;2023-07-30T09:48:12;5.63;;;3.20;;
11616;SDS011;5864;52.998;9.068;2023-07-30T09:50:58;10.83;;;3.30;;
11616;SDS011;5864;52.998;9.068;2023-07-30T09:53:45;8.70;;;3.73;;
11616;SDS011;5864;52.998;9.068;2023-07-30T09:56:32;9.83;;;3.43;;
11616;SDS011;5864;52.998;9.068;2023-07-30T09:59:18;8.97;;;3.33;;
11616;SDS011;5864;52.998;9.068;2023-07-30T10:02:04;10.83;;;4.03;;
11616;SDS011;5864;52.998;9.068;2023-07-30T10:04:50;10.47;;;4.33;;
11616;SDS011;5864;52.998;9.068;2023-07-30T10:07:38;10.37;;;3.87;;
11616;SDS011;5864;52.998;9.068;2023-07-30T10:10:28;10.47;;;3.80;;
11616;SDS011;5864;52.998;9.068;2023-07-30T10:13:15;10.67;;;4.53;;
11616;SDS011;5864;52.998;9.068;2023-07-30T10:16:02;10.87;;;4.60;;
11616;SDS011;5864;52.998;9.068;2023-07-30T10:18:55;8.83;;;4.10;;
11616;SDS011;5864;52.998;9.068;2023-07-30T10:21:42;13.63;;;4.73;;
11616;SDS011;5864;52.998;9.068;2023-07-30T10:24:28;12.87;;;4.60;;
11616;SDS011;5864;52.998;9.068;2023-07-30T10:27:13;12.90;;;5.07;;
11616;SDS011;5864;52.998;9.068;2023-07-30T10:30:11;11.03;;;4.10;;
11616;SDS011;5864;52.998;9.068;2023-07-30T10:32:58;11.33;;;4.10;;
11616;SDS011;5864;52.998;9.068;2023-07-30T10:35:46;11.67;;;4.50;;
11616;SDS011;5864;52.998;9.068;2023-07-30T10:38:31;10.17;;;4.57;;
11616;SDS011;5864;52.998;9.068;2023-07-30T10:41:20;10.73;;;4.03;;
11616;SDS011;5864;52.998;9.068;2023-07-30T10:44:06;8.93;;;4.13;;
11616;SDS011;5864;52.998;9.068;2023-07-30T10:46:53;12.83;;;4.20;;
11616;SDS011;5864;52.998;9.068;2023-07-30T10:49:41;9.40;;;4.10;;
11616;SDS011;5864;52.998;9.068;2023-07-30T10:52:27;11.10;;;3.90;;
11616;SDS011;5864;52.998;9.068;2023-07-30T10:55:13;8.27;;;3.83;;
11616;SDS011;5864;52.998;9.068;2023-07-30T10:57:59;11.90;;;4.63;;
11616;SDS011;5864;52.998;9.068;2023-07-30T11:00:44;8.67;;;3.87;;
11616;SDS011;5864;52.998;9.068;2023-07-30T11:03:31;6.47;;;3.47;;
11616;SDS011;5864;52.998;9.068;2023-07-30T11:06:21;9.03;;;3.60;;
11616;SDS011;5864;52.998;9.068;2023-07-30T11:09:17;7.80;;;3.60;;
11616;SDS011;5864;52.998;9.068;2023-07-30T11:12:04;6.93;;;3.23;;
11616;SDS011;5864;52.998;9.068;2023-07-30T11:14:59;8.83;;;3.80;;
11616;SDS011;5864;52.998;9.068;2023-07-30T11:17:45;11.50;;;4.10;;
11616;SDS011;5864;52.998;9.068;2023-07-30T11:20:32;12.60;;;3.53;;
11616;SDS011;5864;52.998;9.068;2023-07-30T11:23:19;7.20;;;3.23;;
11616;SDS011;5864;52.998;9.068;2023-07-30T11:26:06;8.57;;;3.30;;
11616;SDS011;5864;52.998;9.068;2023-07-30T11:28:53;8.13;;;3.13;;
11616;SDS011;5864;52.998;9.068;2023-07-30T11:31:39;7.13;;;3.33;;
11616;SDS011;5864;52.998;9.068;2023-07-30T11:34:26;10.67;;;3.77;;
11616;SDS011;5864;52.998;9.068;2023-07-30T11:37:13;8.40;;;3.33;;
11616;SDS011;5864;52.998;9.068;2023-07-30T11:39:59;8.73;;;3.47;;
11616;SDS011;5864;52.998;9.068;2023-07-30T11:42:45;9.93;;;3.47;;
11616;SDS011;5864;52.998;9.068;2023-07-30T11:45:30;6.30;;;2.87;;
11616;SDS011;5864;52.998;9.068;2023-07-30T11:48:16;9.50;;;3.63;;
11616;SDS011;5864;52.998;9.068;2023-07-30T11:51:02;10.10;;;3.70;;
11616;SDS011;5864;52.998;9.068;2023-07-30T11:53:49;11.63;;;4.30;;
11616;SDS011;5864;52.998;9.068;2023-07-30T11:56:36;9.33;;;3.50;;
11616;SDS011;5864;52.998;9.068;2023-07-30T11:59:22;5.20;;;3.00;;
11616;SDS011;5864;52.998;9.068;2023-07-30T12:02:08;6.17;;;3.27;;
11616;SDS011;5864;52.998;9.068;2023-07-30T12:04:54;4.70;;;2.93;;
11616;SDS011;5864;52.998;9.068;2023-07-30T12:07:39;6.77;;;2.80;;
11616;SDS011;5864;52.998;9.068;2023-07-30T12:10:27;6.23;;;2.80;;
11616;SDS011;5864;52.998;9.068;2023-07-30T12:13:15;5.30;;;3.23;;
11616;SDS011;5864;52.998;9.068;2023-07-30T12:16:01;5.10;;;2.50;;
11616;SDS011;5864;52.998;9.068;2023-07-30T12:18:46;8.83;;;3.20;;
11616;SDS011;5864;52.998;9.068;2023-07-30T12:21:34;5.37;;;2.53;;
11616;SDS011;5864;52.998;9.068;2023-07-30T12:24:20;8.53;;;3.00;;
11616;SDS011;5864;52.998;9.068;2023-07-30T12:27:07;6.67;;;2.93;;
11616;SDS011;5864;52.998;9.068;2023-07-30T12:29:53;6.47;;;2.77;;
11616;SDS011;5864;52.998;9.068;2023-07-30T12:32:38;8.17;;;3.17;;
11616;SDS011;5864;52.998;9.068;2023-07-30T12:35:24;6.53;;;3.17;;
11616;SDS011;5864;52.998;9.068;2023-07-30T12:38:09;5.60;;;2.77;;
11616;SDS011;5864;52.998;9.068;2023-07-30T12:40:55;6.60;;;3.20;;
11616;SDS011;5864;52.998;9.068;2023-07-30T12:43:42;6.03;;;3.00;;
11616;SDS011;5864;52.998;9.068;2023-07-30T12:46:27;5.73;;;2.30;;
11616;SDS011;5864;52.998;9.068;2023-07-30T12:49:13;4.40;;;2.07;;
11616;SDS011;5864;52.998;9.068;2023-07-30T12:51:59;3.17;;;1.70;;
11616;SDS011;5864;52.998;9.068;2023-07-30T12:54:45;6.83;;;2.30;;
11616;SDS011;5864;52.998;9.068;2023-07-30T12:57:31;3.40;;;2.07;;
11616;SDS011;5864;52.998;9.068;2023-07-30T13:00:18;3.10;;;2.00;;
11616;SDS011;5864;52.998;9.068;2023-07-30T13:03:03;3.07;;;1.93;;
11616;SDS011;5864;52.998;9.068;2023-07-30T13:05:49;9.37;;;2.67;;
11616;SDS011;5864;52.998;9.068;2023-07-30T13:08:35;2.97;;;2.17;;
11616;SDS011;5864;52.998;9.068;2023-07-30T13:11:21;3.77;;;2.00;;
11616;SDS011;5864;52.998;9.068;2023-07-30T13:14:06;4.83;;;2.30;;
11616;SDS011;5864;52.998;9.068;2023-07-30T13:16:53;3.60;;;2.13;;
11616;SDS011;5864;52.998;9.068;2023-07-30T13:19:38;4.20;;;2.20;;
11616;SDS011;5864;52.998;9.068;2023-07-30T13:22:25;4.63;;;2.13;;
11616;SDS011;5864;52.998;9.068;2023-07-30T13:25:11;5.13;;;2.13;;
11616;SDS011;5864;52.998;9.068;2023-07-30T13:27:56;5.57;;;2.40;;
11616;SDS011;5864;52.998;9.068;2023-07-30T13:30:42;3.50;;;2.10;;
11616;SDS011;5864;52.998;9.068;2023-07-30T13:33:29;4.83;;;2.83;;
11616;SDS011;5864;52.998;9.068;2023-07-30T13:36:15;3.60;;;2.53;;
11616;SDS011;5864;52.998;9.068;2023-07-30T13:39:00;3.03;;;2.20;;
11616;SDS011;5864;52.998;9.068;2023-07-30T13:41:46;3.97;;;2.20;;
11616;SDS011;5864;52.998;9.068;2023-07-30T13:44:31;6.03;;;2.40;;
11616;SDS011;5864;52.998;9.068;2023-07-30T13:47:17;3.90;;;2.17;;
11616;SDS011;5864;52.998;9.068;2023-07-30T13:50:04;5.57;;;2.20;;
11616;SDS011;5864;52.998;9.068;2023-07-30T13:52:51;4.37;;;2.33;;
11616;SDS011;5864;52.998;9.068;2023-07-30T13:55:36;3.80;;;2.00;;
11616;SDS011;5864;52.998;9.068;2023-07-30T13:58:22;4.13;;;2.00;;
11616;SDS011;5864;52.998;9.068;2023-07-30T14:01:07;12.80;;;3.10;;
11616;SDS011;5864;52.998;9.068;2023-07-30T14:03:54;5.93;;;2.20;;
11616;SDS011;5864;52.998;9.068;2023-07-30T14:06:41;4.03;;;2.37;;
11616;SDS011;5864;52.998;9.068;2023-07-30T14:09:29;4.73;;;2.07;;
11616;SDS011;5864;52.998;9.068;2023-07-30T14:12:17;3.70;;;2.13;;
11616;SDS011;5864;52.998;9.068;2023-07-30T14:15:02;5.03;;;1.90;;
11616;SDS011;5864;52.998;9.068;2023-07-30T14:17:49;6.77;;;2.60;;
11616;SDS011;5864;52.998;9.068;2023-07-30T14:20:35;4.20;;;1.90;;
11616;SDS011;5864;52.998;9.068;2023-07-30T14:23:23;4.40;;;2.40;;
11616;SDS011;5864;52.998;9.068;2023-07-30T14:26:08;7.87;;;2.53;;
11616;SDS011;5864;52.998;9.068;2023-07-30T14:28:54;6.20;;;2.30;;
11616;SDS011;5864;52.998;9.068;2023-07-30T14:31:40;3.83;;;2.20;;
11616;SDS011;5864;52.998;9.068;2023-07-30T14:34:25;4.03;;;2.27;;
11616;SDS011;5864;52.998;9.068;2023-07-30T14:37:11;5.07;;;2.27;;
11616;SDS011;5864;52.998;9.068;2023-07-30T14:39:57;5.03;;;2.27;;
11616;SDS011;5864;52.998;9.068;2023-07-30T14:42:43;21.97;;;3.23;;
11616;SDS011;5864;52.998;9.068;2023-07-30T14:45:29;4.93;;;2.77;;
11616;SDS011;5864;52.998;9.068;2023-07-30T14:48:14;11.70;;;2.37;;
11616;SDS011;5864;52.998;9.068;2023-07-30T14:51:01;10.30;;;2.53;;
11616;SDS011;5864;52.998;9.068;2023-07-30T14:53:46;25.93;;;3.00;;
11616;SDS011;5864;52.998;9.068;2023-07-30T14:56:34;90.37;;;9.37;;
11616;SDS011;5864;52.998;9.068;2023-07-30T14:59:20;44.07;;;4.53;;
11616;SDS011;5864;52.998;9.068;2023-07-30T15:02:06;8.57;;;2.40;;
11616;SDS011;5864;52.998;9.068;2023-07-30T15:04:51;9.53;;;2.40;;
11616;SDS011;5864;52.998;9.068;2023-07-30T15:07:37;4.20;;;1.90;;
11616;SDS011;5864;52.998;9.068;2023-07-30T15:10:22;5.07;;;2.87;;
11616;SDS011;5864;52.998;9.068;2023-07-30T15:13:09;4.07;;;2.20;;
11616;SDS011;5864;52.998;9.068;2023-07-30T15:15:55;8.20;;;2.27;;
11616;SDS011;5864;52.998;9.068;2023-07-30T15:18:41;6.17;;;2.57;;
11616;SDS011;5864;52.998;9.068;2023-07-30T15:21:26;5.77;;;2.50;;
11616;SDS011;5864;52.998;9.068;2023-07-30T15:24:14;5.17;;;2.40;;
11616;SDS011;5864;52.998;9.068;2023-07-30T15:27:00;6.83;;;2.63;;
11616;SDS011;5864;52.998;9.068;2023-07-30T15:29:47;4.50;;;2.57;;
11616;SDS011;5864;52.998;9.068;2023-07-30T15:32:33;5.40;;;2.50;;
11616;SDS011;5864;52.998;9.068;2023-07-30T15:35:26;5.40;;;2.00;;
11616;SDS011;5864;52.998;9.068;2023-07-30T15:38:11;3.40;;;1.83;;
11616;SDS011;5864;52.998;9.068;2023-07-30T15:40:58;5.03;;;1.83;;
11616;SDS011;5864;52.998;9.068;2023-07-30T15:43:43;5.67;;;1.63;;
11616;SDS011;5864;52.998;9.068;2023-07-30T15:46:32;4.37;;;1.70;;
11616;SDS011;5864;52.998;9.068;2023-07-30T15:49:18;3.03;;;1.50;;
11616;SDS011;5864;52.998;9.068;2023-07-30T15:52:03;3.53;;;1.87;;
11616;SDS011;5864;52.998;9.068;2023-07-30T15:54:50;3.67;;;1.90;;
11616;SDS011;5864;52.998;9.068;2023-07-30T15:57:36;4.93;;;1.70;;
11616;SDS011;5864;52.998;9.068;2023-07-30T16:00:21;3.00;;;1.60;;
11616;SDS011;5864;52.998;9.068;2023-07-30T16:03:09;3.97;;;1.60;;
11616;SDS011;5864;52.998;9.068;2023-07-30T16:05:54;4.20;;;2.10;;
11616;SDS011;5864;52.998;9.068;2023-07-30T16:08:39;3.83;;;1.43;;
11616;SDS011;5864;52.998;9.068;2023-07-30T16:11:25;2.70;;;1.23;;
11616;SDS011;5864;52.998;9.068;2023-07-30T16:14:11;4.20;;;1.57;;
11616;SDS011;5864;52.998;9.068;2023-07-30T16:16:56;3.57;;;1.67;;
11616;SDS011;5864;52.998;9.068;2023-07-30T16:19:43;2.77;;;1.40;;
11616;SDS011;5864;52.998;9.068;2023-07-30T16:22:29;5.67;;;1.80;;
11616;SDS011;5864;52.998;9.068;2023-07-30T16:25:14;4.37;;;1.70;;
11616;SDS011;5864;52.998;9.068;2023-07-30T16:28:00;4.00;;;1.47;;
11616;SDS011;5864;52.998;9.068;2023-07-30T16:30:45;4.77;;;1.60;;
11616;SDS011;5864;52.998;9.068;2023-07-30T16:33:31;2.43;;;1.27;;
11616;SDS011;5864;52.998;9.068;2023-07-30T16:36:18;2.13;;;1.50;;
11616;SDS011;5864;52.998;9.068;2023-07-30T16:39:04;1.57;;;1.30;;
11616;SDS011;5864;52.998;9.068;2023-07-30T16:41:50;3.00;;;1.47;;
11616;SDS011;5864;52.998;9.068;2023-07-30T16:44:35;3.87;;;1.60;;
11616;SDS011;5864;52.998;9.068;2023-07-30T16:47:21;3.17;;;1.60;;
11616;SDS011;5864;52.998;9.068;2023-07-30T16:50:07;2.70;;;1.40;;
11616;SDS011;5864;52.998;9.068;2023-07-30T16:52:54;6.10;;;1.60;;
11616;SDS011;5864;52.998;9.068;2023-07-30T16:55:40;4.23;;;1.30;;